createdAt,value
2024-04-16T00:04:53.658Z,100331.75
2024-04-16T00:09:46.051Z,100339.34
2024-04-16T00:14:38.519Z,100313.63
2024-04-16T00:19:32.066Z,100303.16
2024-04-16T00:24:24.714Z,100313.31
2024-04-16T00:29:18.775Z,100289.97
2024-04-16T00:34:11.300Z,100276.97
2024-04-16T00:39:04.228Z,100315.63
2024-04-16T00:43:56.845Z,100269.31
2024-04-16T00:48:49.864Z,100260.50
2024-04-16T00:53:43.137Z,100265.53
2024-04-16T00:58:41.615Z,100256.16
2024-04-16T01:03:34.207Z,100226.28
2024-04-16T01:08:28.133Z,100233.72
2024-04-16T01:13:20.748Z,100237.03
2024-04-16T01:18:13.531Z,100222.56
2024-04-16T01:23:06.073Z,100241.09
2024-04-16T01:27:58.790Z,100240.25
2024-04-16T01:32:51.284Z,100244.84
2024-04-16T01:37:44.107Z,100238.44
2024-04-16T01:42:36.683Z,100228.22
2024-04-16T01:47:29.218Z,100222.25
2024-04-16T01:52:21.845Z,100249.75
2024-04-16T01:57:14.416Z,100257.03
2024-04-16T02:02:08.919Z,100258.06
2024-04-16T02:07:01.576Z,100244.41
2024-04-16T02:11:54.130Z,100226.06
2024-04-16T02:16:46.785Z,100220.06
2024-04-16T02:21:39.266Z,100221.22
2024-04-16T02:26:31.716Z,100214.38
2024-04-16T02:31:24.108Z,100215.97
2024-04-16T02:36:17.855Z,100212.56
2024-04-16T02:41:10.226Z,100193.91
2024-04-16T02:46:02.871Z,100177.81
2024-04-16T02:50:55.947Z,100189.28
2024-04-16T02:55:48.536Z,100178.63
2024-04-16T03:00:41.126Z,100179.06
2024-04-16T03:05:33.626Z,100172.81
2024-04-16T03:10:26.085Z,100163.53
2024-04-16T03:15:18.637Z,100153.53
2024-04-16T03:20:11.543Z,100137.19
2024-04-16T03:25:05.109Z,100119.53
2024-04-16T03:29:57.681Z,100117.38
2024-04-16T03:34:50.685Z,100112.81
2024-04-16T03:39:43.129Z,100083.75
2024-04-16T03:44:35.475Z,100081.19
2024-04-16T03:49:27.903Z,100099.72
2024-04-16T03:54:20.303Z,100114.09
2024-04-16T03:59:38.753Z,100102.72
2024-04-16T04:04:32.231Z,100117.50
2024-04-16T04:09:24.990Z,100129.25
2024-04-16T04:14:17.674Z,100124.22
2024-04-16T04:19:10.281Z,100086.72
2024-04-16T04:24:05.102Z,100087.44
2024-04-16T04:29:02.342Z,100100.13
2024-04-16T04:33:54.856Z,100066.03
2024-04-16T04:38:47.933Z,100062.75
2024-04-16T04:43:40.445Z,100042.63
2024-04-16T04:48:33.161Z,100053.69
2024-04-16T04:53:26.531Z,100032.63
2024-04-16T04:58:19.242Z,100044.13
2024-04-16T05:03:11.544Z,100023.16
2024-04-16T05:08:04.021Z,100018.38
2024-04-16T05:12:56.681Z,100017.28
2024-04-16T05:17:49.597Z,100011.75
2024-04-16T05:22:45.170Z,100048.91
2024-04-16T05:27:38.477Z,100046.84
2024-04-16T05:32:31.319Z,100034.28
2024-04-16T05:37:23.792Z,100069.38
2024-04-16T05:42:16.314Z,100075.84
2024-04-16T05:47:09.558Z,100084.09
2024-04-16T05:52:02.522Z,100087.56
2024-04-16T05:56:55.449Z,100087.00
2024-04-16T06:01:48.074Z,100098.56
2024-04-16T06:06:40.527Z,100102.72
2024-04-16T06:11:33.074Z,100123.56
2024-04-16T06:16:27.262Z,100140.53
2024-04-16T06:21:19.958Z,100132.66
2024-04-16T06:26:12.425Z,100125.88
2024-04-16T06:31:05.350Z,100134.88
2024-04-16T06:35:57.955Z,100145.75
2024-04-16T06:40:50.427Z,100153.16
2024-04-16T06:45:42.953Z,100141.88
2024-04-16T06:50:36.470Z,100126.16
2024-04-16T06:55:32.314Z,100160.88
2024-04-16T07:00:25.120Z,100207.72
2024-04-16T07:05:17.642Z,100223.84
2024-04-16T07:10:10.259Z,100207.00
2024-04-16T07:15:02.806Z,100210.13
2024-04-16T07:19:55.615Z,100200.06
2024-04-16T07:24:48.142Z,100230.44
2024-04-16T07:29:41.298Z,100230.25
2024-04-16T07:34:33.968Z,100243.63
2024-04-16T07:39:26.679Z,100246.72
2024-04-16T07:44:20.976Z,100267.09
2024-04-16T07:49:13.437Z,100251.03
2024-04-16T07:54:06.426Z,100281.47
2024-04-16T07:58:59.092Z,100283.19
2024-04-16T08:03:52.588Z,100288.53
2024-04-16T08:08:45.018Z,100293.41
2024-04-16T08:13:38.831Z,100296.44
2024-04-16T08:18:31.845Z,100282.63
2024-04-16T08:23:24.654Z,100318.47
2024-04-16T08:28:17.107Z,100305.84
2024-04-16T08:33:10.038Z,100323.09
2024-04-16T08:38:03.763Z,100359.09
2024-04-16T08:42:59.320Z,100367.31
2024-04-16T08:47:54.136Z,100381.31
2024-04-16T08:52:46.909Z,100379.75
2024-04-16T08:57:41.307Z,100394.25
2024-04-16T09:02:35.264Z,100385.00
2024-04-16T09:07:30.320Z,100419.53
2024-04-16T09:12:23.360Z,100437.50
2024-04-16T09:17:16.533Z,100428.59
2024-04-16T09:22:09.807Z,100429.16
2024-04-16T09:27:09.057Z,100438.44
2024-04-16T09:32:04.478Z,100442.28
2024-04-16T09:36:57.007Z,100467.06
2024-04-16T09:41:50.332Z,100477.56
2024-04-16T09:46:45.642Z,100476.53
2024-04-16T09:51:41.054Z,100475.50
2024-04-16T09:56:35.099Z,100483.19
2024-04-16T10:01:30.310Z,100483.66
2024-04-16T10:06:22.917Z,100504.44
2024-04-16T10:11:22.361Z,100498.66
2024-04-16T10:16:21.957Z,100516.47
2024-04-16T10:21:24.119Z,100478.22
2024-04-16T10:26:17.478Z,100524.16
2024-04-16T10:31:10.501Z,100523.97
2024-04-16T10:36:06.827Z,100557.16
2024-04-16T10:40:59.503Z,100545.00
2024-04-16T10:45:53.030Z,100572.69
2024-04-16T10:50:48.684Z,100558.06
2024-04-16T10:55:44.531Z,100572.25
2024-04-16T11:00:37.452Z,100568.78
2024-04-16T11:05:29.936Z,100578.91
2024-04-16T11:10:22.350Z,100549.25
2024-04-16T11:15:14.997Z,100587.84
2024-04-16T11:20:09.552Z,100602.91
2024-04-16T11:25:04.046Z,100612.81
2024-04-16T11:29:56.576Z,100603.09
2024-04-16T11:34:50.410Z,100626.91
2024-04-16T11:39:46.121Z,100625.75
2024-04-16T11:44:42.575Z,100612.41
2024-04-16T11:49:35.819Z,100618.00
2024-04-16T11:54:28.327Z,100654.44
2024-04-16T11:59:20.816Z,100671.97
2024-04-16T12:04:13.459Z,100652.69
2024-04-16T12:09:06.097Z,100643.06
2024-04-16T12:14:00.329Z,100661.16
2024-04-16T12:18:53.539Z,100668.03
2024-04-16T12:23:51.180Z,100670.69
2024-04-16T12:28:49.144Z,100672.81
2024-04-16T12:33:46.331Z,100671.75
2024-04-16T12:38:38.842Z,100681.25
2024-04-16T12:43:32.580Z,100666.38
2024-04-16T12:48:27.257Z,100697.03
2024-04-16T12:53:19.923Z,100715.09
2024-04-16T12:58:12.996Z,100719.38
2024-04-16T13:03:05.669Z,100698.53
2024-04-16T13:07:58.234Z,100728.59
2024-04-16T13:12:50.808Z,100714.69
2024-04-16T13:17:43.454Z,100739.72
2024-04-16T13:22:36.019Z,100746.34
2024-04-16T13:27:28.885Z,100744.84
2024-04-16T13:32:21.661Z,100740.97
2024-04-16T13:37:15.019Z,100750.88
2024-04-16T13:42:08.040Z,100763.13
2024-04-16T13:47:01.126Z,100754.59
2024-04-16T13:51:53.671Z,100770.59
2024-04-16T13:56:47.493Z,100764.75
2024-04-16T14:01:40.297Z,100773.56
2024-04-16T14:06:33.958Z,100769.50
2024-04-16T14:11:26.754Z,100763.28
2024-04-16T14:16:19.512Z,100776.47
2024-04-16T14:21:12.063Z,100783.06
2024-04-16T14:26:04.685Z,100783.69
2024-04-16T14:30:57.249Z,100796.81
2024-04-16T14:35:49.788Z,100798.88
2024-04-16T14:40:42.502Z,100806.50
2024-04-16T14:45:35.231Z,100810.47
2024-04-16T14:50:27.818Z,100793.03
2024-04-16T14:55:20.319Z,100846.56
2024-04-16T15:00:15.279Z,100854.59
2024-04-16T15:05:08.141Z,100889.00
2024-04-16T15:10:01.718Z,100873.16
2024-04-16T15:14:53.982Z,100894.06
2024-04-16T15:19:48.102Z,100898.03
2024-04-16T15:24:40.481Z,100865.44
2024-04-16T15:29:34.434Z,100890.34
2024-04-16T15:34:27.019Z,100910.19
2024-04-16T15:39:19.758Z,100912.34
2024-04-16T15:44:12.248Z,100897.72
2024-04-16T15:49:04.624Z,100910.03
2024-04-16T15:53:57.264Z,100911.91
2024-04-16T15:58:49.970Z,100907.13
2024-04-16T16:03:55.008Z,100906.44
2024-04-16T16:08:48.516Z,100909.56
2024-04-16T16:13:41.109Z,100928.41
2024-04-16T16:18:38.520Z,100929.94
2024-04-16T16:23:31.083Z,100953.31
2024-04-16T16:28:23.608Z,100950.53
2024-04-16T16:33:16.261Z,100945.84
2024-04-16T16:38:08.787Z,100959.31
2024-04-16T16:43:01.266Z,100961.84
2024-04-16T16:47:57.119Z,100973.28
2024-04-16T16:52:50.011Z,100951.75
2024-04-16T16:57:44.264Z,100978.75
2024-04-16T17:02:36.817Z,100961.38
2024-04-16T17:07:29.564Z,100986.44
2024-04-16T17:12:22.935Z,100947.31
2024-04-16T17:17:17.352Z,100939.31
2024-04-16T17:22:21.819Z,100985.34
2024-04-16T17:27:15.627Z,100987.94
2024-04-16T17:32:08.460Z,100984.75
2024-04-16T17:37:03.956Z,100991.59
2024-04-16T17:41:56.304Z,101003.81
2024-04-16T17:46:51.331Z,101019.66
2024-04-16T17:51:45.320Z,101024.97
2024-04-16T17:56:37.668Z,101035.56
2024-04-16T18:01:31.133Z,101056.63
2024-04-16T18:06:26.532Z,101049.22
2024-04-16T18:11:23.209Z,101069.97
2024-04-16T18:16:18.689Z,101081.97
2024-04-16T18:21:11.280Z,101086.47
2024-04-16T18:26:03.955Z,101084.78
2024-04-16T18:30:56.458Z,101092.59
2024-04-16T18:35:49.605Z,101095.38
2024-04-16T18:40:43.747Z,101121.16
2024-04-16T18:45:36.236Z,101114.09
2024-04-16T18:50:31.113Z,101125.31
2024-04-16T18:55:23.740Z,101138.88
2024-04-16T19:00:16.297Z,101143.47
2024-04-16T19:05:10.091Z,101143.25
2024-04-16T19:10:03.434Z,101168.13
2024-04-16T19:14:57.141Z,101168.75
2024-04-16T19:19:52.152Z,101184.78
2024-04-16T19:24:44.893Z,101191.69
2024-04-16T19:29:37.358Z,101194.63
2024-04-16T19:34:30.306Z,101204.34
2024-04-16T19:39:22.859Z,101203.22
2024-04-16T19:44:15.337Z,101209.59
2024-04-16T19:49:08.850Z,101230.75
2024-04-16T19:54:01.606Z,101229.31
2024-04-16T19:58:58.266Z,101228.88
2024-04-16T20:03:52.027Z,101223.94
2024-04-16T20:08:45.319Z,101252.28
2024-04-16T20:13:37.869Z,101250.91
2024-04-16T20:18:31.605Z,101260.16
2024-04-16T20:23:24.340Z,101256.38
2024-04-16T20:28:16.953Z,101263.75
2024-04-16T20:33:09.466Z,101271.97
2024-04-16T20:38:04.343Z,101275.69
2024-04-16T20:42:57.182Z,101283.94
2024-04-16T20:47:49.630Z,101279.94
2024-04-16T20:52:42.130Z,101275.94
2024-04-16T20:57:35.338Z,101281.44
2024-04-16T21:02:27.932Z,101288.50
2024-04-16T21:07:20.580Z,101305.44
2024-04-16T21:12:13.314Z,101288.97
2024-04-16T21:17:06.442Z,101288.19
2024-04-16T21:21:59.226Z,101292.81
2024-04-16T21:26:51.715Z,101306.06
2024-04-16T21:31:44.434Z,101294.28
2024-04-16T21:36:37.089Z,101304.78
2024-04-16T21:41:29.533Z,101311.16
2024-04-16T21:46:23.094Z,101310.75
2024-04-16T21:51:15.882Z,101309.03
2024-04-16T21:56:09.284Z,101316.47
2024-04-16T22:01:06.511Z,101322.88
2024-04-16T22:06:02.821Z,101337.97
2024-04-16T22:11:05.572Z,101340.75
2024-04-16T22:16:55.056Z,101344.50
2024-04-16T22:23:03.254Z,101344.63
2024-04-16T22:28:14.692Z,101353.56
2024-04-16T22:33:07.909Z,101354.72
2024-04-16T22:38:00.466Z,101340.91
2024-04-16T22:42:52.975Z,101348.91
2024-04-16T22:47:45.309Z,101362.78
2024-04-16T22:52:37.806Z,101359.63
2024-04-16T22:57:30.706Z,101352.88
2024-04-16T23:02:24.227Z,101358.19
2024-04-16T23:07:16.635Z,101360.25
2024-04-16T23:12:10.406Z,101364.09
2024-04-16T23:17:02.868Z,101364.31
2024-04-16T23:21:55.945Z,101356.72
2024-04-16T23:26:48.560Z,101365.78
2024-04-16T23:31:40.930Z,101349.03
2024-04-16T23:36:33.391Z,101366.63
2024-04-16T23:41:25.922Z,101362.34
2024-04-16T23:46:19.081Z,101343.19
2024-04-16T23:51:11.662Z,101349.09
2024-04-16T23:56:04.279Z,101346.56
